Terminal Aerodrome Forecast
Issued by NWS

Home | Current Version | Previous Version | Text Only | Print | Product List | Glossary On
Versions: 1 2 3 4 5 6 7 8 9 10 11 12 13 14 15 16 17 18
917
FTAK31 PAJN 140520
TAFAKT
TAF
PAKT 140520Z 1406/1506 VRB04KT P6SM -SHRA SCT030 OVC060
     FM141500 15010G20KT 5SM -SHRA BR SCT015 OVC025
     FM150000 VRB06KT 4SM -SHRA BR SCT015 OVC025
      AMD LTD TO CLD VIS AND WIND 1406/1415=

USA.gov is the U.S. government's official web portal to all federal, state and local government web resources and services.